This site, now in its 15th season, is a labour of love and fun from one of Ottawa's most avid time trialists and number crunchers. It adheres to and is permitted by the laws of Canada, promotes the objectives of every bicycle club whose results are shown, and is donated free of charge by myself for your enjoyment and usage. If you would like results from series you ride in to be shown here, give me (celia@drmath.ca) a shout!


Index Page
ATT OTT WTT AATT CFCTT VVVTT
Help resultformat:
Case-sensitive

OBC Open TT Series - 2008-Jun-12 - 15km (Rockliffe Pkwy) (EvtFactor = 0.9137)

Weather (18:00): Sunny. Temp.: 23°C, Humidity: 26%, Dew Point: 2°C, Wind: E 4km/h, Pressure: 102.5kPa, Visibility: 24km.
Weather (19:00): Mainly Sunny. Temp.: 23°C, Humidity: 32%, Dew Point: 5°C, Wind: SSE 8km/h, Pressure: 102.5kPa, Visibility: 24km.
Weather (20:00): Mainly Sunny. Temp.: 20°C, Humidity: 44%, Dew Point: 7°C, Wind: SE 5km/h, Pressure: 102.5kPa, Visibility: 24km.

Send photos with description (when/where/what) of yourself on or off of bike to celia@drmath.ca

Note that I offered to type these results into the OBC database first, but nobody had a copy of the software which is needed to do that! Hence, the results were first posted here circa 22:00 on 2008-Jun-12 so that riders would have access to the results soon after the event. Perhaps the OBC Board will reconsider my generous offers to provide WEB tt input software for the ottawabicycleclub.ca site and also software to download results from drmath.ca?

Tonight was a great night - sunny, warm and virtually no wind. Six men broke the 20 minute barrier, and one woman, Allison McKay was faster than 40km/h, despite going off the road at the start! Curiously enough, though, only half of the 60 people who had ridden earlier 2008 OTT events improved upon their times. Maybe it was fatigue from Rideau Lakes, or maybe the weather was so nice that others took the time to enjoy it! There were two improvements in the category database bests tonight - Andrew Lattimore's new Junior Male record of 19:57, and Paul Datar's Veteran C record of 19:47. Turn-around marshal Hermann also wanted to compliment the good behaviour of most participants at the turn around. He in particular singled out Peter Tregunno who acknowledged a motorist who waited for him to turn with a friendly and appreciative wave!

 
 

BESTS?
 
1 Nash, Michael  OBC 18:56 47.535 1/81 VBM 1/20 1.0347
2 MacDonald, Warren  OBC/EMD 19:12 46.875 2/81 VAM 1/10 0.9589
3 Rendall, Glen  RWR 19:35 45.957 3/81 VAM 2/10 1.0678
4 Datars, Paul  OBC/RWR 19:47 45.493 4/81 VCM 1/17 1.0255
Y 5 Lattimore, Andrew GGR 19:57 45.113 5/81 JUM 1/2  
6 Bowers, Bryson JET 19:58 45.075 6/81 SEM 1/4  
7 Hanrahan, Mason EUR 20:21 44.226 7/81 JUM 2/2 1.0373
8 Munden, David EMD 20:40 43.548 8/81 VAM 3/10 1.0692
9 van den Ham, Douglas  OBC 20:43 43.443 9/81 SEM 2/4 1.0466
10 Sudac, Rick  OBC/RWR 20:46 43.339 10/81 VCM 2/17 0.9295
11 Martel, Brad RWR 20:55 43.028 11/81 VBM 2/20 1.0388
12 Desbiens, Martin OBC/RDO 21:03 42.755 12/81 VAM 4/10 1.0095
13 Wright, Sean CYC 21:06 42.654 13/81 VBM 3/20 1.0263
14 Sidhu, Joël ULT 21:11 42.486 14/81 SEM 3/4 0.9859
15 Christie, Greg  OBC/RWR 21:13 42.419 15/81 VCM 3/17 1.0358
Katz, Joel  OBC/RWR 21:13 42.419 15/81 VCM 3/17 0.9906
17 Zappe, Erich RWR 21:14 42.386 17/81 VBM 4/20 0.9445
18 Ainsley, Gino OBC 21:34 41.731 18/81 VBM 5/20  
19 Romkey, Gary OBC/RWR 21:38 41.602 19/81 VDM 1/8 0.9748
20 Fortin, Yves OBC 21:42 41.475 20/81 VBM 6/20 1.2037
21 Henschel, Peter OBC 21:51 41.190 21/81 VBM 7/20  
Lefebvre, Jean-Pierre OBC 21:51 41.190 21/81 VAM 5/10  
23 Tregunno, Peter  OBC 21:52 41.159 23/81 VAM 6/10 0.9977
24 Budgell, Glen  OBC 22:02 40.847 24/81 VCM 5/17 0.9487
25 Cameron, Allen  OBC/RWR 22:04 40.785 25/81 VCM 6/17 0.9444
26 McKay, Allison  OBC/RDO 22:11 40.571 26/81 VBF 1/9 0.9666
27 Gerrard, David  OBC 22:16 40.419 27/81 VBM 8/20 1.1855
28 Hess, Detlef OBC 22:20 40.299 28/81 VCM 7/17 0.9866
29 Morewood, Colin OBC 22:25 40.149 29/81 CAM 1/2 1.0990
30 Lapointe, Marc EMD 22:27 40.089 30/81 VAM 7/10 1.0337
31 Posthuma, Hans  OBC 22:32 39.941 31/81 VCM 8/17 0.9780
32 Heffernan, Derek OBC 22:33 39.911 32/81 VAM 8/10  
Heffler, Paul OBC 22:33 39.911 32/81 VBM 9/20 0.9671
Morvan, Jacques  OBC 22:33 39.911 32/81 VDM 2/8 0.8890
35 Hill, Greg  RDO 22:35 39.852 35/81 VBM 10/20  
36 Reiher, Martin OBC/RDO 22:44 39.589 36/81 VBM 11/20  
37 DeVidi, Robert  OBC 22:55 39.273 37/81 VBM 12/20 0.9381
38 Tongoc, Serge RWR 22:57 39.216 38/81 VBM 13/20 0.9979
39 Thomas, Trevor CYC 22:59 39.159 39/81 VAM 9/10 0.9320
40 Moerman, Bram  OBC 23:03 39.046 40/81 VDM 3/8 1.0153
41 Revesz, Erika  OBC 23:07 38.933 41/81 VCF 1/5 1.0799
42 Farish, Neil  OBC/RWR 23:09 38.877 42/81 VCM 9/17 0.9850
43 Burdett, Avery  OBC 23:13 38.765 43/81 VDM 4/8 0.9892
44 Boulanger, Gaetan  OBC 23:16 38.682 44/81 VDM 5/8 1.0458
45 Dorego, Jean-Louis OBC 23:38 38.082 45/81 VCM 10/17 0.9338
46 MacKinnon, Anita  OBC 23:46 37.868 46/81 VAF 1/2 1.0212
47 Wilkinson, Ross OBC 23:52 37.709 47/81 VBM 14/20 0.9364
48 Wilkins, Carl  OBC 23:54 37.657 48/81 SEM 4/4  
49 Armstrong, Brian OBC 24:04 37.396 49/81 VBM 15/20 1.0464
50 Blais, Bob OBC 24:07 37.319 50/81 VCM 11/17 1.0378
51 Orange, Kiernan OBC/RWR 24:17 37.062 51/81 CAM 2/2 1.0228
52 Desjardins, Marcel OBC 24:21 36.961 52/81 VDM 6/8 1.0269
53 Humphreys, Les  OBC/ABC 24:25 36.860 53/81 VDM 7/8  
54 Austen, Ian  OBC 24:33 36.660 54/81 VCM 12/17 0.9304
55 Bellinger, Lindsey OBC 24:40 36.486 55/81 VBF 2/9  
Janusauskas, Vytas  OBC 24:40 36.486 55/81 VCM 13/17 0.9738
57 Coney, Michael OBC 24:41 36.462 57/81 VDM 8/8 0.9078
58 James, Peter OBC 24:48 36.290 58/81 VCM 14/17  
59 Lewis, Alex  OBC 24:58 36.048 59/81 VCM 15/17 1.2208
60 McInnis, Celia  OBC/ABC 25:01 35.976 60/81 VCF 2/5 0.9567
61 White, Dave OBC 25:03 35.928 61/81 VCM 16/17  
62 Coney, Ingrid  OBC 25:04 35.904 62/81 VCF 3/5 0.9940
63 Marleau, Dianne  OBC/RWR 25:19 35.550 63/81 VBF 3/9 1.0646
64 Dionne, Suzanne  OBC 25:20 35.526 64/81 VBF 4/9  
65 Georges, Patrick OBC 25:33 35.225 65/81 VBM 16/20 0.9576
66 Beraud, Sophie OBC 25:47 34.906 66/81 SEF 1/2 0.9865
67 Provencher, Mélanie RDO 25:50 34.839 67/81 SEF 2/2  
68 Imbrogno, Giorgio  OBC 26:08 34.439 68/81 VCM 17/17 0.9291
69 Levi, Cheryl OBC 26:10 34.395 69/81 VBF 5/9 1.0824
70 McLaughlin, Brian OBC 26:17 34.242 70/81 VBM 17/20  
71 Gauthier, Marie OBC 26:27 34.026 71/81 VCF 4/5 1.0815
Ingham, Alison  OBC 26:27 34.026 71/81 VBF 6/9 0.9316
73 Jardine, Karen  OBC 26:41 33.729 73/81 VBF 7/9  
74 Smith, Stephanie OBC 26:47 33.603 74/81 VAF 2/2 1.0283
75 McLaren, Louise  OBC 26:58 33.375 75/81 VBF 8/9 1.0075
76 Gagné, Marc  OBC 27:01 33.313 76/81 VBM 18/20 0.7988
77 Kline, Patrick OBC 27:08 33.170 77/81 VBM 19/20  
78 Hart, Kate OBC/RWR 27:10 33.129 78/81 VBF 9/9 1.1087
79 LeBrun, Robert OBC 35:19 25.484 79/81 VAM 10/10 1.0710
80 Pazdzior, Ellen  OBC DNF   81/81 VCF 5/5  
Simard, Martin OBC DNS   80/81 VBM 20/20  
 
Average Speed of all of the above 79 finishes (1185km in 30:50:26):38.423
>>>Average of the Average Speeds for these 79 finishes38.829<<<
 

The number of data records shown above is 81
The server processing of your query took: 1 wallclock secs ( 0.13 usr + 0.05 sys = 0.18 CPU)

Thanks to our Helpers: Grégoire Crevier, Gunter Hauschildt, Hermann Kerckhoff, Celia McInnis, Andrea McKay, Alex McKnight.

     


Mar 21 (Good Friday)
Apr 24
May 1 May 6 (10km) May 8 May 13 (10km) May 15 May 20 May 20 (10km) May 22 May 27 May 27 (10km) May 29
Jun 1 (40km) Jun 3 Jun 3 Jun 5 Jun 10 Jun 10
  Jun 12  
Jun 17 Jun 17 Jun 19 Jun 24 Jun 24 Jun 26
Jul 1 (cancelled - ) Jul 2 Jul 3 Jul 6 (40km) Jul 8 Jul 8 Jul 10 Jul 15 Jul 15 Jul 17 Jul 22 Jul 22 Jul 24 Jul 27 (40km) Jul 29 Jul 29 Jul 31
Aug 5 Aug 5 Aug 7 Aug 10 (40km) Aug 12 Aug 12 Aug 14 Aug 19 Aug 19 Aug 21 Aug 26 Aug 26 (Invitational) Aug 28
Sep 2 Sep 4 Sep 7 (40km) Sep 9 Sep 11 Sep 16 Sep 21 (40km) Sep 23 Sep 30

OTT Rankings
Best       Best by category
WTT Rankings for OBC Members
5 Best Speeds     5 Best Speeds by category
OBC Member Best Three 15km Rankings
Overall     by category     age-Hcap Female   age-Hcap Male
OBC BAR Ranking
Overall     by category     Rider "Consistency-Graph"
ABC BAR Ranking
Overall     by category     Rider "Consistency-Graph"
Other years
TT Calculator All TT People All TT events
ABC Home VVV Home
CKAP GOLD MEDAL
Other Links

Note: OTT data from 2003 through 2006-Apr-14 and 2007-Apr-06-? and WTT from 2008-? is taken from the official OBC site.

Please send your comments and suggestions to: Celia McInnis
Copyright © 1998-2011 Celia McInnis. All rights reserved. Links are welcomed.